FAWB/PRY METAR and TAF weather

Enter ICAO airport designator
Station Type Date Time Source
FAWB METAR 2020/04/09 20:00 UTC NOAA

FAWB 092000Z AUTO 05008KT //// // ////// 18/13 Q1027


Station Type Date Time Source
FAWB Decoded METAR 2020/04/09 20:00 UTC NOAA

Wonderboom / Pretoria, South Africa (FAWB) 25-39S 028-13E
Apr 09, 2020 - 04:00 PM EDT / 2020.04.09 2000 UTC
Wind: from the NE (050 degrees) at 9 MPH (8 KT):0
Temperature: 64 F (18 C)
Dew Point: 55 F (13 C)
Relative Humidity: 72%
Pressure (altimeter): 30.33 in. Hg (1027 hPa)
ob: FAWB 092000Z AUTO 05008KT //// // ////// 18/13 Q1027
cycle: 20

Station Type Date Time Source
FAWB TAF 2019/01/10 10:00 UTC NOAA

TAF FAWB 101000Z 1010/1018 30007KT CAVOK
BECMG 1014/1016 SCT035 PROB30
TEMPO 1016/1018 -TSRA FEW040CB TX31/1013Z TN26/1018Z

Example: see airport list